Time;durP1;ratioP1;P1;durP2;ratioP2;P2;SDS_P1;SDS_P2;PMS_P1;PMS_P2;Temp;Humidity;BMP_temperature;BMP_pressure;BME280_temperature;BME280_humidity;BME280_pressure;Samples;Min_cycle;Max_cycle;Signal;HPM_P1;HPM_P2
2021/09/24 00:01:47;;;;;;;15.63;5.10;;;;;;;14.24;62.46;101126.34;6114270;29;20247;-50
2021/09/24 00:05:09;;;;;;;20.67;6.77;;;;;;;13.95;63.11;101117.25;6114642;29;20984;-54
2021/09/24 00:08:30;;;;;;;14.33;4.37;;;;;;;13.99;63.18;101118.09;6111964;29;20330;-52
2021/09/24 00:11:53;;;;;;;26.10;6.47;;;;;;;13.67;64.53;101110.81;6111322;29;20232;-51
2021/09/24 00:15:16;;;;;;;23.37;7.20;;;;;;;13.62;65.17;101128.34;6118918;29;20197;-53
2021/09/24 00:18:37;;;;;;;20.20;5.83;;;;;;;13.85;64.65;101113.09;6116246;28;20232;-51
2021/09/24 00:21:58;;;;;;;19.33;5.70;;;;;;;13.72;65.33;101117.69;6115579;29;20239;-50
2021/09/24 00:25:19;;;;;;;17.00;4.90;;;;;;;13.52;65.91;101112.78;6118672;29;20614;-50
2021/09/24 00:28:42;;;;;;;17.80;5.97;;;;;;;13.18;68.03;101115.91;6112866;29;20228;-53
2021/09/24 00:32:03;;;;;;;16.50;5.47;;;;;;;13.05;68.53;101118.75;6113344;28;20240;-54
2021/09/24 00:35:24;;;;;;;26.47;6.97;;;;;;;13.31;67.59;101115.75;6116635;29;20759;-54
2021/09/24 00:38:45;;;;;;;25.83;5.97;;;;;;;13.29;67.15;101107.03;6109077;29;20232;-52
2021/09/24 00:42:06;;;;;;;17.67;5.47;;;;;;;13.30;66.88;101103.53;6119756;29;20235;-51
2021/09/24 00:45:29;;;;;;;23.10;6.70;;;;;;;13.32;67.12;101120.13;6115264;29;20317;-50
2021/09/24 00:48:49;;;;;;;17.90;6.13;;;;;;;13.49;66.44;101123.31;6116081;29;20586;-54
2021/09/24 00:52:11;;;;;;;21.17;5.80;;;;;;;13.30;67.27;101129.69;6118220;29;20232;-48
2021/09/24 00:55:32;;;;;;;20.40;5.80;;;;;;;12.95;68.77;101128.44;6116658;29;20196;-52
2021/09/24 00:58:53;;;;;;;20.17;4.67;;;;;;;13.26;67.75;101131.50;6114865;29;20243;-49
2021/09/24 01:02:15;;;;;;;19.50;6.33;;;;;;;13.31;67.70;101127.06;6119893;29;20255;-50
2021/09/24 01:05:36;;;;;;;17.83;4.63;;;;;;;13.46;66.82;101123.34;6113668;29;20220;-51
2021/09/24 01:08:57;;;;;;;20.63;5.83;;;;;;;13.54;66.47;101125.84;6113683;29;20232;-51
2021/09/24 01:12:18;;;;;;;18.33;4.80;;;;;;;13.59;66.38;101137.97;6117346;29;20336;-51
2021/09/24 01:15:39;;;;;;;20.03;5.73;;;;;;;13.57;66.60;101133.63;6109639;29;20236;-54
2021/09/24 01:19:02;;;;;;;14.90;4.13;;;;;;;13.52;66.69;101138.94;6121496;29;20228;-49
2021/09/24 01:22:24;;;;;;;24.87;5.80;;;;;;;13.36;66.95;101146.19;6122252;29;20572;-55
2021/09/24 01:25:45;;;;;;;21.10;6.03;;;;;;;13.57;66.14;101145.00;6130989;29;20314;-49
2021/09/24 01:29:06;;;;;;;16.07;6.10;;;;;;;13.49;66.27;101136.41;6116055;29;20228;-52
2021/09/24 01:32:27;;;;;;;21.77;5.97;;;;;;;13.33;66.87;101129.66;6120694;29;20232;-53
2021/09/24 01:35:49;;;;;;;19.63;5.30;;;;;;;13.43;66.24;101120.78;6116613;29;20196;-49
2021/09/24 01:39:12;;;;;;;18.13;5.57;;;;;;;13.54;66.08;101128.47;6117706;29;20231;-49
2021/09/24 01:42:33;;;;;;;22.07;5.67;;;;;;;13.42;66.52;101133.91;6120989;28;20510;-49
2021/09/24 01:45:54;;;;;;;25.17;5.40;;;;;;;13.29;66.90;101133.19;6121001;29;20270;-50
2021/09/24 01:49:15;;;;;;;17.53;5.33;;;;;;;13.16;67.77;101136.00;6119708;29;20200;-52
2021/09/24 01:52:36;;;;;;;24.07;5.63;;;;;;;12.92;69.09;101133.72;6120043;29;20232;-51
2021/09/24 01:55:58;;;;;;;22.17;6.30;;;;;;;13.33;67.65;101125.28;6114061;29;20189;-54
2021/09/24 01:59:19;;;;;;;20.40;6.27;;;;;;;13.04;68.40;101141.38;6117599;29;20208;-54
2021/09/24 02:02:40;;;;;;;15.63;5.10;;;;;;;12.88;69.56;101139.88;6116094;29;20343;-55
2021/09/24 02:06:03;;;;;;;21.80;6.23;;;;;;;13.03;69.01;101147.50;6117635;29;20228;-53
2021/09/24 02:09:24;;;;;;;20.07;5.23;;;;;;;13.15;68.57;101152.56;6117562;29;20208;-52
2021/09/24 02:12:46;;;;;;;29.77;7.70;;;;;;;12.83;69.66;101152.13;6119572;29;20362;-50
2021/09/24 02:16:08;;;;;;;23.77;6.50;;;;;;;12.66;70.52;101155.84;6121272;29;20212;-53
2021/09/24 02:19:30;;;;;;;18.63;5.00;;;;;;;12.68;70.49;101146.22;6118006;29;20570;-53
2021/09/24 02:22:51;;;;;;;19.97;6.40;;;;;;;12.55;70.58;101144.66;6120946;29;20239;-53
2021/09/24 02:26:12;;;;;;;18.13;5.63;;;;;;;12.60;70.55;101153.28;6119044;28;20232;-49
2021/09/24 02:29:34;;;;;;;21.40;5.70;;;;;;;12.35;71.76;101148.34;6116511;29;22103;-55
2021/09/24 02:32:55;;;;;;;22.93;6.13;;;;;;;12.67;70.60;101149.72;6117889;28;20227;-52
2021/09/24 02:36:16;;;;;;;22.00;6.10;;;;;;;12.57;70.34;101148.97;6115904;29;20309;-54
2021/09/24 02:39:37;;;;;;;18.83;7.10;;;;;;;12.45;70.98;101153.47;6118781;29;20780;-50
2021/09/24 02:42:58;;;;;;;21.33;6.80;;;;;;;12.17;72.13;101153.75;6116283;28;20326;-52
2021/09/24 02:46:20;;;;;;;20.40;5.97;;;;;;;12.13;72.50;101162.50;6119245;28;20255;-53
2021/09/24 02:49:42;;;;;;;25.13;7.43;;;;;;;12.12;72.57;101158.19;6119919;29;20239;-51
2021/09/24 02:53:03;;;;;;;19.40;5.90;;;;;;;12.31;72.23;101164.06;6118577;28;20239;-54
2021/09/24 02:56:23;;;;;;;22.20;6.07;;;;;;;11.94;73.65;101175.75;6115983;29;20232;-52
2021/09/24 02:59:45;;;;;;;22.70;6.17;;;;;;;12.11;72.86;101174.72;6117895;29;20212;-52
2021/09/24 03:03:07;;;;;;;16.10;6.00;;;;;;;12.21;72.66;101176.34;6117736;28;20244;-53
2021/09/24 03:06:28;;;;;;;22.40;6.10;;;;;;;12.24;72.37;101171.09;6115128;28;20243;-51
2021/09/24 03:09:49;;;;;;;19.53;6.07;;;;;;;12.26;72.18;101169.34;6115001;29;20204;-54
2021/09/24 03:13:10;;;;;;;19.30;6.10;;;;;;;12.16;72.99;101172.94;6108060;29;20232;-53
2021/09/24 03:16:30;;;;;;;19.33;6.27;;;;;;;12.38;72.01;101173.56;6113062;29;20270;-50
2021/09/24 03:19:53;;;;;;;25.03;6.03;;;;;;;12.41;71.79;101168.31;6115604;29;20208;-55
2021/09/24 03:23:13;;;;;;;21.23;5.50;;;;;;;12.24;72.05;101171.09;6112840;29;20239;-52
2021/09/24 03:26:35;;;;;;;17.63;5.17;;;;;;;12.21;72.42;101165.91;6109120;29;20232;-55
2021/09/24 03:29:56;;;;;;;21.00;6.10;;;;;;;12.29;71.97;101171.03;6114171;29;20232;-53
2021/09/24 03:33:17;;;;;;;22.50;7.23;;;;;;;12.41;71.36;101178.78;6113678;28;20228;-50
2021/09/24 03:36:39;;;;;;;18.00;4.33;;;;;;;12.33;71.83;101168.41;6114752;29;21929;-52
2021/09/24 03:40:01;;;;;;;27.73;6.37;;;;;;;12.45;70.69;101167.41;6113488;29;20212;-52
2021/09/24 03:43:22;;;;;;;16.30;4.67;;;;;;;12.40;71.26;101166.56;6112445;29;20256;-53
2021/09/24 03:46:43;;;;;;;21.03;6.10;;;;;;;12.56;70.62;101173.38;6113884;29;20232;-50
2021/09/24 03:50:05;;;;;;;24.07;5.90;;;;;;;12.16;71.59;101172.94;6113658;29;20335;-50
2021/09/24 03:53:28;;;;;;;25.30;5.33;;;;;;;12.34;71.88;101167.50;6113759;29;20883;-50
2021/09/24 03:56:49;;;;;;;21.43;6.90;;;;;;;12.01;72.89;101173.94;6113775;29;20224;-51
2021/09/24 04:00:11;;;;;;;21.23;6.33;;;;;;;11.99;73.09;101160.91;6115485;29;20214;-52
2021/09/24 04:03:35;;;;;;;15.03;5.27;;;;;;;11.92;73.69;101174.91;6112425;29;20654;-48
2021/09/24 04:06:56;;;;;;;20.10;7.00;;;;;;;12.12;73.42;101177.31;6111051;29;20224;-50
2021/09/24 04:10:18;;;;;;;23.80;6.57;;;;;;;12.40;72.28;101171.81;6112609;29;20207;-52
2021/09/24 04:13:39;;;;;;;18.90;6.23;;;;;;;12.21;73.01;101171.13;6113339;28;20231;-48
2021/09/24 04:17:00;;;;;;;23.80;6.17;;;;;;;12.08;73.22;101172.13;6112973;29;20243;-51
2021/09/24 04:20:21;;;;;;;23.93;6.33;;;;;;;12.23;72.74;101174.59;6114212;29;20196;-51
2021/09/24 04:23:42;;;;;;;20.03;5.03;;;;;;;12.40;71.66;101171.81;6113661;28;20224;-52
2021/09/24 04:27:05;;;;;;;26.33;6.57;;;;;;;12.48;72.10;101179.56;6110087;29;20236;-50
2021/09/24 04:30:27;;;;;;;21.10;5.83;;;;;;;12.48;71.81;101187.38;6117293;29;20231;-53
2021/09/24 04:33:48;;;;;;;23.27;6.90;;;;;;;12.31;72.64;101183.22;6117200;29;20236;-53
2021/09/24 04:37:09;;;;;;;27.00;6.27;;;;;;;12.51;72.02;101189.97;6118889;29;20594;-53
2021/09/24 04:40:31;;;;;;;14.97;5.47;;;;;;;12.54;71.70;101195.16;6119964;29;20236;-52
2021/09/24 04:43:53;;;;;;;22.43;5.83;;;;;;;12.45;71.97;101196.13;6118943;29;20235;-56
2021/09/24 04:47:14;;;;;;;20.13;4.73;;;;;;;12.29;72.46;101194.53;6112981;28;20236;-52
2021/09/24 04:50:35;;;;;;;19.33;5.63;;;;;;;12.30;72.55;101189.31;6118942;29;20236;-50
2021/09/24 04:53:56;;;;;;;17.50;4.73;;;;;;;12.25;72.75;101192.84;6114658;29;20224;-49
2021/09/24 04:57:17;;;;;;;20.07;5.50;;;;;;;12.02;73.53;101191.34;6120757;28;20219;-53
2021/09/24 05:00:39;;;;;;;17.07;5.37;;;;;;;12.29;72.70;101190.22;6119944;29;20193;-55
2021/09/24 05:04:00;;;;;;;17.43;6.27;;;;;;;12.25;72.96;101193.72;6118165;29;20634;-51
2021/09/24 05:07:21;;;;;;;18.87;5.30;;;;;;;12.25;72.92;101198.94;6122594;29;20229;-50
2021/09/24 05:10:42;;;;;;;20.80;5.70;;;;;;;11.79;75.05;101207.16;6115876;29;20587;-53
2021/09/24 05:14:04;;;;;;;15.77;4.93;;;;;;;11.89;74.69;101195.78;6120075;29;20608;-54
2021/09/24 05:17:26;;;;;;;16.50;4.87;;;;;;;12.04;73.97;101209.59;6121436;28;20228;-52
2021/09/24 05:20:47;;;;;;;15.77;5.97;;;;;;;11.98;74.77;101206.16;6118698;29;20469;-52
2021/09/24 05:24:08;;;;;;;19.57;4.97;;;;;;;11.98;74.58;101205.28;6122608;29;20264;-53
2021/09/24 05:27:29;;;;;;;23.67;6.13;;;;;;;11.89;75.44;101205.34;6120350;29;20227;-47
2021/09/24 05:30:50;;;;;;;16.20;4.37;;;;;;;12.04;75.30;101215.69;6119547;29;20208;-52
2021/09/24 05:34:12;;;;;;;26.83;7.17;;;;;;;12.27;74.31;101207.66;6124574;29;20220;-50
2021/09/24 05:37:33;;;;;;;18.50;5.17;;;;;;;11.90;76.19;101197.50;6119049;28;20231;-49
2021/09/24 05:40:54;;;;;;;18.50;6.50;;;;;;;12.01;75.65;101202.66;6120457;29;20681;-54
2021/09/24 05:44:16;;;;;;;15.80;5.90;;;;;;;12.11;75.36;101199.06;6122653;29;20591;-52
2021/09/24 05:47:38;;;;;;;13.07;4.90;;;;;;;12.34;75.13;101198.84;6109703;29;20225;-54
2021/09/24 05:50:59;;;;;;;22.37;5.33;;;;;;;12.40;74.65;101198.78;6109946;29;20235;-55
2021/09/24 05:54:20;;;;;;;18.70;4.43;;;;;;;12.05;76.56;101209.56;6115208;29;20483;-51
2021/09/24 05:57:42;;;;;;;15.60;5.70;;;;;;;12.25;76.67;101212.00;6115031;29;20235;-55
2021/09/24 06:01:03;;;;;;;16.30;5.80;;;;;;;12.27;76.27;101198.91;6121292;29;20197;-54
2021/09/24 06:04:24;;;;;;;20.77;6.53;;;;;;;12.31;76.63;101188.44;6117291;29;20208;-54
2021/09/24 06:07:47;;;;;;;16.90;5.30;;;;;;;12.48;76.19;101196.09;6119460;29;20653;-48
2021/09/24 06:11:08;;;;;;;22.73;6.63;;;;;;;12.18;77.52;101197.28;6114825;29;20590;-55
2021/09/24 06:14:29;;;;;;;15.17;5.13;;;;;;;12.59;76.69;101198.59;6114363;29;20688;-53
2021/09/24 06:17:50;;;;;;;17.67;4.93;;;;;;;12.80;75.73;101208.78;6116199;28;20232;-53
2021/09/24 06:21:12;;;;;;;18.43;5.43;;;;;;;12.95;75.38;101212.09;6115642;29;20219;-52
2021/09/24 06:24:34;;;;;;;15.77;6.20;;;;;;;12.92;75.37;101209.53;6094046;29;20202;-54
2021/09/24 06:27:55;;;;;;;21.57;5.23;;;;;;;12.90;76.29;101214.78;6108885;29;20236;-52
2021/09/24 06:31:16;;;;;;;11.00;4.53;;;;;;;13.41;74.59;101218.50;6117324;29;20885;-51
2021/09/24 06:34:37;;;;;;;14.43;4.73;;;;;;;12.88;76.73;101227.00;6112657;29;20268;-55
2021/09/24 06:37:58;;;;;;;13.57;4.43;;;;;;;13.22;75.69;101228.31;6102896;28;20228;-53
2021/09/24 06:41:21;;;;;;;23.73;6.40;;;;;;;13.20;75.76;101221.38;6108988;29;20315;-54
2021/09/24 06:44:43;;;;;;;22.73;5.60;;;;;;;13.33;76.26;101229.06;6113118;29;20228;-52
2021/09/24 06:48:04;;;;;;;17.53;4.87;;;;;;;13.25;77.21;101225.66;6111843;29;20228;-52
2021/09/24 06:51:26;;;;;;;15.77;4.90;;;;;;;13.14;79.11;101228.41;6118083;29;20259;-49
2021/09/24 06:54:47;;;;;;;20.33;6.00;;;;;;;13.10;80.57;101238.03;6120550;29;20196;-53
2021/09/24 06:58:09;;;;;;;20.60;5.43;;;;;;;13.28;80.95;101238.69;6113538;28;20227;-53
2021/09/24 07:01:30;;;;;;;18.67;4.53;;;;;;;13.13;82.52;101243.25;6098725;28;20238;-54
2021/09/24 07:04:51;;;;;;;14.93;4.70;;;;;;;12.96;84.43;101239.97;6116673;29;20201;-53
2021/09/24 07:08:11;;;;;;;12.93;4.70;;;;;;;13.16;83.20;101239.72;6113608;29;20332;-55
2021/09/24 07:11:33;;;;;;;17.57;5.40;;;;;;;13.25;83.58;101241.34;6115435;29;20810;-52
2021/09/24 07:14:55;;;;;;;13.07;5.70;;;;;;;13.17;84.30;101234.47;6115573;29;20193;-50
2021/09/24 07:18:16;;;;;;;22.37;5.53;;;;;;;13.36;83.36;101245.59;6114879;29;20224;-52
2021/09/24 07:21:38;;;;;;;18.37;6.53;;;;;;;13.35;84.29;101229.91;6111034;28;20662;-52
2021/09/24 07:24:58;;;;;;;10.27;5.63;;;;;;;13.79;82.44;101228.38;6108479;29;20575;-51
2021/09/24 07:28:19;;;;;;;15.37;5.63;;;;;;;13.57;84.39;101226.09;6106174;29;20224;-49
2021/09/24 07:31:41;;;;;;;18.87;6.37;;;;;;;13.76;83.79;101221.47;6102424;29;20306;-53
2021/09/24 07:35:03;;;;;;;18.20;6.00;;;;;;;13.83;83.27;101214.34;6117938;29;20201;-51
2021/09/24 07:38:24;;;;;;;16.27;4.77;;;;;;;13.85;82.77;101216.97;6111120;29;20231;-52
2021/09/24 07:41:45;;;;;;;17.97;6.07;;;;;;;14.13;81.61;101206.88;6114834;29;20236;-51
2021/09/24 07:45:07;;;;;;;14.73;5.47;;;;;;;14.16;81.93;101212.06;6118993;29;20196;-53
2021/09/24 07:48:30;;;;;;;11.73;5.40;;;;;;;13.76;82.51;101204.88;6108222;29;20236;-54
2021/09/24 07:51:53;;;;;;;8.70;5.03;;;;;;;14.28;81.53;101196.13;6116899;29;20224;-51
2021/09/24 07:55:14;;;;;;;9.87;4.23;;;;;;;14.45;80.74;101189.72;6120899;29;20574;-55
2021/09/24 07:58:37;;;;;;;11.43;4.73;;;;;;;14.90;78.92;101205.44;6117647;29;20255;-50
2021/09/24 08:01:58;;;;;;;11.37;4.53;;;;;;;14.80;79.33;101203.91;6115023;28;20232;-54
2021/09/24 08:05:20;;;;;;;8.87;4.53;;;;;;;14.61;80.60;101190.31;6120250;29;20208;-55
2021/09/24 08:08:41;;;;;;;9.77;4.17;;;;;;;15.19;77.58;101185.59;6105349;29;20239;-55
2021/09/24 08:12:02;;;;;;;14.13;4.77;;;;;;;15.32;78.05;101197.53;6112847;29;20243;-55
2021/09/24 08:15:23;;;;;;;8.87;4.00;;;;;;;15.08;79.20;101193.69;6119076;29;20521;-50
2021/09/24 08:18:44;;;;;;;10.07;4.20;;;;;;;15.32;77.77;101194.91;6113559;29;20503;-55
2021/09/24 08:22:06;;;;;;;10.57;4.90;;;;;;;15.41;77.47;101188.56;6117885;29;20231;-55
2021/09/24 08:25:28;;;;;;;11.90;3.83;;;;;;;15.44;76.88;101202.50;6117744;29;20204;-52
2021/09/24 08:28:49;;;;;;;10.13;3.23;;;;;;;15.49;76.88;101215.50;6115810;29;20235;-54
2021/09/24 08:32:10;;;;;;;10.77;3.60;;;;;;;15.78;75.60;101196.50;6118033;28;20260;-53
2021/09/24 08:35:31;;;;;;;9.90;3.37;;;;;;;15.80;75.41;101199.94;6122004;29;20212;-55
2021/09/24 08:38:54;;;;;;;9.97;3.23;;;;;;;16.13;74.65;101202.63;6131540;28;20307;-54
2021/09/24 08:42:15;;;;;;;11.17;3.43;;;;;;;15.16;77.89;101218.00;6124602;29;20302;-55
2021/09/24 08:45:36;;;;;;;9.93;3.90;;;;;;;15.16;78.18;101202.28;6125658;29;20200;-55
2021/09/24 08:48:57;;;;;;;11.17;3.90;;;;;;;15.00;79.82;101208.72;6122252;29;20220;-50
2021/09/24 08:52:18;;;;;;;10.67;3.63;;;;;;;15.64;77.42;101207.25;6123059;28;20585;-52
2021/09/24 08:55:42;;;;;;;8.83;3.47;;;;;;;15.91;76.55;101208.38;6130981;29;20637;-53
2021/09/24 08:59:03;;;;;;;8.87;3.57;;;;;;;15.81;76.32;101201.66;6124279;29;20216;-51
2021/09/24 09:02:24;;;;;;;8.80;3.30;;;;;;;16.00;76.00;101198.56;6126922;29;20224;-51
2021/09/24 09:05:48;;;;;;;8.57;4.33;;;;;;;15.87;75.87;101195.38;6121836;29;20200;-54
2021/09/24 09:09:09;;;;;;;8.93;4.13;;;;;;;15.96;75.82;101194.31;6124242;29;20212;-52
2021/09/24 09:12:32;;;;;;;9.37;3.43;;;;;;;15.77;76.95;101189.50;6121495;28;20288;-51
2021/09/24 09:15:57;;;;;;;9.20;3.47;;;;;;;15.99;76.26;101191.59;6117655;29;20204;-50
2021/09/24 09:19:17;;;;;;;6.83;3.60;;;;;;;16.17;75.42;101190.22;6118986;29;20607;-50
2021/09/24 09:22:39;;;;;;;9.60;4.17;;;;;;;15.63;77.84;101196.81;6118237;28;20454;-50
2021/09/24 09:26:02;;;;;;;9.07;3.70;;;;;;;16.00;76.59;101195.94;6121268;28;20200;-54
2021/09/24 09:29:25;;;;;;;8.60;4.03;;;;;;;15.89;77.25;101172.56;6120547;29;20229;-53
2021/09/24 09:32:59;;;;;;;7.43;2.93;;;;;;;15.85;77.59;101198.03;6117182;29;20248;-50
2021/09/24 09:36:25;;;;;;;8.20;3.30;;;;;;;15.97;77.62;101191.63;6120323;29;21064;-52
2021/09/24 09:40:01;;;;;;;7.10;3.73;;;;;;;15.70;78.32;101199.28;6121445;29;20204;-55
2021/09/24 09:43:30;;;;;;;12.50;3.67;;;;;;;16.18;76.00;101199.84;6114609;29;20224;-51
2021/09/24 09:46:53;;;;;;;7.90;4.23;;;;;;;16.57;74.96;101212.81;6121517;29;20291;-50
2021/09/24 09:50:17;;;;;;;7.90;3.30;;;;;;;16.85;73.58;101220.84;6123039;29;20572;-53
2021/09/24 09:53:37;;;;;;;10.93;3.63;;;;;;;16.27;75.62;101215.38;6121414;29;20247;-54
2021/09/24 09:57:10;;;;;;;9.50;3.43;;;;;;;16.37;74.90;101216.84;6119427;29;20228;-52
2021/09/24 10:00:33;;;;;;;8.13;4.27;;;;;;;16.11;76.32;101214.91;6121819;29;20204;-53
2021/09/24 10:03:55;;;;;;;10.10;4.03;;;;;;;16.33;75.64;101213.44;6116450;29;20568;-50
2021/09/24 10:07:18;;;;;;;10.27;4.27;;;;;;;16.38;75.82;101215.09;6122227;29;20236;-52
2021/09/24 10:10:53;;;;;;;7.37;3.07;;;;;;;16.60;75.06;101226.75;6123853;29;20239;-53
2021/09/24 10:14:15;;;;;;;7.40;3.20;;;;;;;16.42;75.02;101220.22;6121144;29;20224;-53
2021/09/24 10:17:36;;;;;;;8.93;4.13;;;;;;;16.70;74.43;101212.44;6111932;29;20235;-51
2021/09/24 10:20:59;;;;;;;7.10;3.33;;;;;;;16.85;73.83;101207.69;6100801;28;20204;-53
2021/09/24 10:24:20;;;;;;;10.27;3.67;;;;;;;16.56;74.79;101216.38;6117766;29;20582;-52
2021/09/24 10:27:45;;;;;;;11.43;4.20;;;;;;;16.42;75.19;101214.09;6114803;29;20561;-52
2021/09/24 10:31:14;;;;;;;6.37;2.73;;;;;;;16.34;76.27;101211.66;6107851;28;20550;-52
2021/09/24 10:34:53;;;;;;;7.43;3.67;;;;;;;16.24;76.05;101216.31;6117715;29;20196;-53
2021/09/24 10:38:17;;;;;;;5.77;3.87;;;;;;;16.32;76.30;101210.84;6116666;29;20237;-50
2021/09/24 10:41:38;;;;;;;6.50;3.60;;;;;;;16.31;75.97;101202.13;6112207;29;20251;-52
2021/09/24 10:45:03;;;;;;;5.83;3.67;;;;;;;16.23;76.41;101208.50;6111131;29;20306;-53
2021/09/24 10:48:26;;;;;;;7.33;3.10;;;;;;;16.53;75.59;101207.63;6108142;29;20232;-53
2021/09/24 10:52:08;;;;;;;7.43;4.70;;;;;;;16.10;76.96;101213.19;6112104;28;20235;-53
2021/09/24 10:55:31;;;;;;;8.03;4.20;;;;;;;16.42;75.94;101201.84;6112267;29;20239;-54
2021/09/24 10:58:52;;;;;;;6.73;4.10;;;;;;;16.46;75.77;101205.22;6117595;28;20888;-51
2021/09/24 11:02:36;;;;;;;9.50;5.27;;;;;;;16.57;75.66;101208.41;6118262;29;20235;-49
2021/09/24 11:05:58;;;;;;;11.47;5.77;;;;;;;16.53;76.26;101193.63;6121211;29;20200;-54
2021/09/24 11:09:22;;;;;;;12.17;6.07;;;;;;;16.86;74.85;101193.63;6115692;29;20216;-55
2021/09/24 11:13:07;;;;;;;8.43;4.67;;;;;;;16.77;75.13;101204.38;6103211;29;20232;-55
2021/09/24 11:16:43;;;;;;;11.63;5.20;;;;;;;16.65;75.66;101201.19;6112513;28;20231;-51
2021/09/24 11:20:27;;;;;;;10.70;5.77;;;;;;;16.51;77.09;101192.81;6108546;29;20454;-54
2021/09/24 11:23:49;;;;;;;9.07;5.37;;;;;;;16.44;77.22;101193.88;6112441;29;20227;-56
2021/09/24 11:27:12;;;;;;;8.17;4.83;;;;;;;16.60;77.54;101194.34;6112999;29;20776;-52
2021/09/24 11:30:46;;;;;;;11.07;6.17;;;;;;;16.78;77.17;101199.06;6114860;29;20324;-54
2021/09/24 11:34:07;;;;;;;9.03;6.30;;;;;;;16.44;79.08;101186.00;6112887;29;21714;-53
2021/09/24 11:37:30;;;;;;;10.67;6.03;;;;;;;16.48;79.94;101192.91;6117845;29;20227;-54
2021/09/24 11:40:54;;;;;;;10.53;7.77;;;;;;;16.13;81.55;101187.72;6109822;29;20567;-52
2021/09/24 11:44:15;;;;;;;11.40;6.93;;;;;;;16.60;79.40;101174.16;6110268;29;20224;-54
2021/09/24 11:47:41;;;;;;;11.27;6.50;;;;;;;16.86;78.10;101177.84;6113297;29;20232;-52
2021/09/24 11:51:10;;;;;;;14.67;7.00;;;;;;;17.34;75.64;101157.97;6113486;29;20240;-53
2021/09/24 11:54:31;;;;;;;15.03;7.43;;;;;;;17.21;75.88;101158.34;6111205;29;20334;-51
2021/09/24 11:58:01;;;;;;;12.97;7.77;;;;;;;17.27;75.65;101152.03;6105504;29;20570;-53
2021/09/24 12:01:23;;;;;;;7.20;5.70;;;;;;;17.29;75.38;101147.56;6105803;29;20238;-49
2021/09/24 12:04:58;;;;;;;10.27;5.50;;;;;;;17.53;73.77;101143.31;6111844;29;20192;-51
2021/09/24 12:08:22;;;;;;;10.17;5.73;;;;;;;17.54;73.62;101139.75;6110061;29;20250;-52
2021/09/24 12:11:46;;;;;;;10.10;5.80;;;;;;;17.83;72.67;101145.81;6112169;29;20227;-51
2021/09/24 12:15:07;;;;;;;14.27;7.67;;;;;;;17.51;73.63;101134.59;6116759;29;20200;-47
2021/09/24 12:18:45;;;;;;;10.97;5.97;;;;;;;17.60;72.39;101133.41;6110336;28;20241;-48
2021/09/24 12:22:10;;;;;;;11.07;6.10;;;;;;;17.74;72.59;101133.84;6111408;29;21486;-51
2021/09/24 12:25:31;;;;;;;7.93;5.97;;;;;;;17.70;72.25;101130.44;6109019;29;20212;-55
2021/09/24 12:28:58;;;;;;;11.20;6.40;;;;;;;17.77;71.97;101125.81;6105549;29;20558;-56
2021/09/24 12:32:20;;;;;;;10.90;5.90;;;;;;;17.93;71.20;101133.22;6112497;29;20232;-52
2021/09/24 12:35:41;;;;;;;11.83;6.23;;;;;;;17.50;72.63;101123.19;6118162;29;20200;-51
2021/09/24 12:39:15;;;;;;;13.90;5.77;;;;;;;17.79;72.10;101113.44;6119110;29;20228;-53
2021/09/24 12:42:37;;;;;;;11.27;6.10;;;;;;;17.76;72.31;101117.94;6118648;29;20227;-54
2021/09/24 12:45:58;;;;;;;13.47;7.23;;;;;;;17.94;71.54;101108.59;6112178;29;20228;-56
2021/09/24 12:49:21;;;;;;;14.13;5.90;;;;;;;18.02;71.07;101111.81;6113134;29;20598;-52
2021/09/24 12:52:43;;;;;;;8.87;5.40;;;;;;;17.68;71.61;101090.13;6117351;29;20267;-54
2021/09/24 12:56:05;;;;;;;9.87;6.00;;;;;;;17.78;71.18;101114.38;6117700;28;20220;-51
2021/09/24 12:59:26;;;;;;;10.48;6.60;;;;;;;18.03;70.46;101103.88;6116797;29;20204;-53
2021/09/24 13:02:48;;;;;;;11.30;5.83;;;;;;;17.89;70.92;101108.75;6116401;28;20721;-53
2021/09/24 13:06:10;;;;;;;13.90;5.07;;;;;;;17.63;71.85;101112.25;6118010;29;20201;-51
2021/09/24 13:09:32;;;;;;;10.82;5.38;;;;;;;17.89;71.03;101111.38;6115991;29;20208;-54
2021/09/24 13:12:55;;;;;;;7.85;5.25;;;;;;;17.78;70.98;101101.19;6119398;29;20243;-52
2021/09/24 13:16:16;;;;;;;10.05;4.97;;;;;;;17.86;70.61;101108.88;6112731;29;20220;-50
2021/09/24 13:19:37;;;;;;;13.27;4.80;;;;;;;17.52;71.43;101116.13;6110994;29;20267;-51
2021/09/24 13:22:58;;;;;;;8.95;4.78;;;;;;;17.67;71.42;101098.06;6113160;29;20255;-49
2021/09/24 13:26:21;;;;;;;9.32;5.32;;;;;;;17.57;71.34;101096.66;6109174;29;20224;-48
2021/09/24 13:29:46;;;;;;;12.07;6.60;;;;;;;17.95;70.41;101097.13;6105042;29;20200;-54
2021/09/24 13:33:07;;;;;;;11.40;5.97;;;;;;;17.96;70.56;101083.06;6117135;29;20236;-51
2021/09/24 13:36:28;;;;;;;11.60;5.40;;;;;;;17.73;71.26;101082.06;6123361;29;20227;-52
2021/09/24 13:39:49;;;;;;;8.77;5.85;;;;;;;18.18;70.14;101070.81;6115781;29;20200;-52
2021/09/24 13:43:10;;;;;;;9.82;5.28;;;;;;;18.37;69.15;101083.31;6115077;28;20750;-52
2021/09/24 13:46:32;;;;;;;6.82;5.13;;;;;;;18.33;69.60;101087.00;6115669;29;20331;-52
2021/09/24 13:49:53;;;;;;;8.80;4.85;;;;;;;18.15;69.79;101084.13;6120491;29;20606;-53
2021/09/24 13:53:15;;;;;;;7.37;5.03;;;;;;;18.01;69.88;101075.84;6111183;29;20236;-51
2021/09/24 13:56:36;;;;;;;10.60;5.87;;;;;;;18.23;69.24;101065.38;6120976;29;20597;-52
2021/09/24 13:59:57;;;;;;;8.55;4.68;;;;;;;18.16;69.54;101070.00;6126292;29;20574;-52
2021/09/24 14:03:20;;;;;;;10.23;5.95;;;;;;;18.38;68.78;101080.63;6120710;29;20232;-53
2021/09/24 14:06:41;;;;;;;8.07;5.50;;;;;;;18.55;67.90;101087.88;6121479;28;20574;-53
2021/09/24 14:10:02;;;;;;;6.47;4.55;;;;;;;18.23;68.44;101092.59;6098234;29;20628;-53
2021/09/24 14:13:24;;;;;;;7.25;5.03;;;;;;;18.35;68.44;101096.56;6111578;28;20630;-49
2021/09/24 14:16:44;;;;;;;7.45;4.97;;;;;;;18.43;67.96;101085.72;6119675;29;20235;-55
2021/09/24 14:20:09;;;;;;;10.05;5.03;;;;;;;18.44;68.44;101085.69;6114091;29;20212;-49
2021/09/24 14:23:30;;;;;;;8.82;5.78;;;;;;;18.40;68.51;101086.72;6112241;29;20622;-51
2021/09/24 14:26:52;;;;;;;8.90;7.20;;;;;;;18.26;69.07;101081.94;6112675;29;20470;-54
2021/09/24 14:30:15;;;;;;;8.07;5.95;;;;;;;18.72;67.73;101073.22;6115328;29;20204;-53
2021/09/24 14:33:36;;;;;;;9.40;5.93;;;;;;;18.11;68.80;101074.59;6117257;29;20228;-51
2021/09/24 14:36:58;;;;;;;6.82;6.10;;;;;;;18.42;68.31;101070.84;6115590;29;20240;-52
2021/09/24 14:40:21;;;;;;;9.52;6.07;;;;;;;18.40;68.25;101077.94;6121548;29;20197;-52
2021/09/24 14:43:43;;;;;;;14.02;7.30;;;;;;;18.06;70.09;101069.47;6095591;29;20581;-52
2021/09/24 14:47:04;;;;;;;9.40;6.90;;;;;;;18.27;69.32;101070.47;6088769;29;20335;-52
2021/09/24 14:50:25;;;;;;;7.40;6.30;;;;;;;18.05;70.14;101064.28;6097060;29;20228;-54
2021/09/24 14:53:47;;;;;;;9.80;7.20;;;;;;;18.23;69.56;101071.50;6090967;29;20610;-51
2021/09/24 14:57:09;;;;;;;10.52;6.97;;;;;;;18.22;69.29;101069.81;6095151;29;20241;-51
2021/09/24 15:00:30;;;;;;;9.53;8.33;;;;;;;18.27;69.56;101073.13;6101950;29;20204;-49
2021/09/24 15:03:51;;;;;;;14.10;7.75;;;;;;;18.38;69.16;101070.09;6100839;29;20334;-51
2021/09/24 15:07:12;;;;;;;11.45;8.65;;;;;;;17.95;70.42;101083.97;6102619;29;20229;-51
2021/09/24 15:10:34;;;;;;;9.65;8.65;;;;;;;18.10;70.09;101070.22;6103656;29;20211;-53
2021/09/24 15:13:55;;;;;;;11.65;8.05;;;;;;;18.12;70.37;101068.41;6102657;29;20243;-53
2021/09/24 15:17:16;;;;;;;11.40;8.43;;;;;;;18.18;70.00;101065.53;6109895;29;20527;-53
2021/09/24 15:20:37;;;;;;;11.10;8.23;;;;;;;18.02;70.27;101073.16;6108830;29;20196;-50
2021/09/24 15:23:58;;;;;;;13.23;8.95;;;;;;;18.10;70.54;101064.97;6103879;29;20256;-54
2021/09/24 15:27:21;;;;;;;17.05;11.15;;;;;;;18.18;70.12;101068.16;6114257;29;20232;-53
2021/09/24 15:30:42;;;;;;;13.75;9.60;;;;;;;18.28;69.93;101063.41;6119094;29;20205;-53
2021/09/24 15:34:03;;;;;;;16.15;12.75;;;;;;;18.12;70.24;101063.13;6120005;29;20243;-54